ADDS METAR Data INFO
IDs: Format: Raw Decoded Include TAF

Data at: 2212 UTC 24 Jun 2018

KDKX 242155Z AUTO 24006KT 10SM FEW022 27/24 A3000 RMK A01 P0001
KDKX 242135Z AUTO 00000KT 10SM BKN023 BKN041 26/24 A3001 RMK A01
KDKX 242115Z AUTO 13003KT 6SM BR BKN025 BKN031 OVC038 26/25 A3001 RMK A01
KDKX 242055Z AUTO VRB03G12KT 2SM HZ FEW029 BKN041 OVC110 27/24 A3000 RMK A01 P0005 VIS 1 1/4V4
KDKX 242035Z AUTO 22008G16KT 9SM FEW029 FEW033 SCT085 30/23 A2998 RMK A01
KDKX 242015Z AUTO 22008G15KT 10SM CLR 33/23 A2997 RMK A01
KDKX 241955Z AUTO 25008KT 10SM CLR 32/22 A2998 RMK A01
KDKX 241935Z AUTO 23010KT 10SM FEW046 FEW050 SCT090 30/21 A2999 RMK A01
KDKX 241915Z AUTO 25009KT 220V280 10SM FEW043 SCT050 SCT060 31/22 A2998 RMK A01
KDKX 241855Z AUTO 23009KT 10SM SCT048 BKN055 BKN065 32/22 A2998 RMK A01
KDKX 241835Z AUTO 29004G10KT 10SM FEW044 SCT055 BKN065 31/22 A2998 RMK A01
KDKX 241815Z AUTO VRB06G13KT 10SM FEW044 FEW055 SCT070 33/22 A2999 RMK A01
KDKX 241755Z AUTO 24007G12KT 10SM SCT045 BKN055 BKN065 31/22 A2999 RMK A01
KDKX 241735Z AUTO VRB05KT 10SM SCT040 BKN048 BKN060 31/22 A3000 RMK A01
KDKX 241715Z AUTO 26006G15KT 10SM SCT038 SCT049 BKN075 31/22 A3000 RMK A01
KDKX 241655Z AUTO 26007KT 230V300 10SM FEW036 SCT075 31/22 A3000 RMK A01
KDKX 241635Z AUTO VRB05G13KT 10SM FEW037 FEW042 SCT065 31/23 A3001 RMK A01
KDKX 241615Z AUTO 26007KT 10SM FEW036 FEW055 FEW065 30/23 A3002 RMK A01
KDKX 241555Z AUTO 27008KT 10SM FEW026 SCT034 30/23 A3002 RMK A01
KDKX 241535Z AUTO 24009KT 10SM FEW024 FEW032 29/23 A3002 RMK A01
KDKX 241515Z AUTO 26006KT 10SM FEW020 SCT026 SCT048 29/23 A3001 RMK A01
KDKX 241455Z AUTO 24008KT 10SM BKN020 BKN024 OVC050 27/23 A3002 RMK A01
KDKX 241435Z AUTO 26006KT 10SM SCT020 SCT025 BKN042 28/23 A3001 RMK A01
KDKX 241415Z AUTO 25008KT 10SM SCT020 SCT026 BKN034 27/23 A3001 RMK A01
KDKX 241355Z AUTO 25007KT 10SM BKN020 BKN025 BKN033 27/23 A3000 RMK A01
KDKX 241335Z AUTO 25009KT 10SM SCT020 SCT030 BKN075 27/23 A3000 RMK A01
KDKX 241315Z AUTO VRB06G16KT 10SM FEW025 SCT060 BKN100 26/23 A3000 RMK A01
KDKX 241255Z AUTO 26008KT 10SM FEW024 BKN028 BKN038 27/23 A3000 RMK A01
KDKX 241235Z AUTO 24007G15KT 220V290 10SM SCT030 SCT038 BKN050 25/23 A3000 RMK A01
KDKX 241215Z AUTO 25007KT 10SM FEW022 BKN031 BKN050 25/23 A2998 RMK A01
KDKX 241155Z AUTO 26004KT 10SM FEW022 SCT031 BKN049 25/23 A2998 RMK A01
KDKX 241135Z AUTO 24005KT 10SM BKN047 BKN055 25/22 A2997 RMK A01
KDKX 241115Z AUTO 26004KT 10SM FEW033 OVC043 24/22 A2997 RMK A01
KDKX 241055Z AUTO VRB05KT 10SM FEW027 SCT032 OVC040 24/22 A2997 RMK A01
KDKX 241035Z AUTO 25004KT 10SM FEW022 BKN028 OVC037 23/22 A2996 RMK A01
KDKX 241015Z AUTO 25004KT 10SM BKN023 OVC028 23/22 A2995 RMK A01
KDKX 240955Z AUTO 00000KT 10SM OVC025 23/22 A2995 RMK A01
KDKX 240935Z AUTO 23003KT 10SM BKN025 OVC030 23/21 A2994 RMK A01
KDKX 240915Z AUTO 00000KT 10SM BKN024 BKN032 OVC055 23/21 A2994 RMK A01
KDKX 240855Z AUTO 00000KT 10SM SCT020 BKN033 OVC049 23/21 A2993 RMK A01
KDKX 240835Z AUTO 25006KT 10SM OVC019 24/21 A2993 RMK A01
KDKX 240815Z AUTO 26005KT 10SM OVC020 24/21 A2993 RMK A01
KDKX 240755Z AUTO 00000KT 10SM BKN023 OVC028 23/21 A2992 RMK A01
KDKX 240735Z AUTO 00000KT 10SM BKN025 OVC030 23/21 A2992 RMK A01
KDKX 240715Z AUTO 00000KT 10SM BKN024 BKN029 OVC036 23/21 A2993 RMK A01
KDKX 240655Z AUTO 00000KT 10SM 23/21 A2993 RMK A01
KDKX 240635Z AUTO 25004KT 10SM 24/21 A2994 RMK A01
KDKX 240615Z AUTO 26003KT 10SM OVC022 24/21 A2994 RMK A01
KDKX 240555Z AUTO 26004KT 10SM 24/21 A2995 RMK A01
KDKX 240535Z AUTO 26003KT 10SM 24/21 A2995 RMK A01
KDKX 240515Z AUTO 00000KT 10SM 24/21 A2995 RMK A01
KDKX 240455Z AUTO 26004KT 10SM 24/21 A2995 RMK A01
KDKX 240435Z AUTO 26005KT 10SM 24/21 A2995 RMK A01
KDKX 240415Z AUTO VRB05KT 10SM 24/21 A2995 RMK A01
KDKX 240355Z AUTO 24005KT 10SM 24/21 A2995 RMK A01
KDKX 240335Z AUTO 26006KT 10SM 24/21 A2995 RMK A01
KDKX 240315Z AUTO 25008KT 10SM BKN028 OVC035 24/21 A2995 RMK A01
KDKX 240255Z AUTO 27006KT 10SM OVC028 24/20 A2994 RMK A01
KDKX 240235Z AUTO 26005KT 10SM OVC030 24/20 A2993 RMK A01
KDKX 240215Z AUTO 26005KT 10SM OVC030 24/20 A2993 RMK A01
KDKX 240155Z AUTO 25004KT 10SM OVC028 24/20 A2991 RMK A01
KDKX 240135Z AUTO VRB03KT 10SM SCT027 SCT032 23/20 A2990 RMK A01
KDKX 240115Z AUTO 25005KT 10SM CLR 23/20 A2990 RMK A01
KDKX 240055Z AUTO 25006KT 10SM FEW048 24/20 A2989 RMK A01
KDKX 240035Z AUTO 26006KT 10SM FEW048 24/20 A2989 RMK A01
KDKX 240015Z AUTO 26007G15KT 10SM CLR 24/20 A2989 RMK A01
KDKX 232355Z AUTO 25007G13KT 10SM CLR 24/19 A2989 RMK A01
KDKX 232335Z AUTO 25006G14KT 10SM CLR 24/19 A2988 RMK A01
KDKX 232315Z AUTO 25010G15KT 10SM CLR 25/19 A2988 RMK A01
KDKX 232255Z AUTO 24010G19KT 10SM CLR 25/19 A2988 RMK A01
KDKX 232235Z AUTO 24012KT 10SM CLR 25/19 A2989 RMK A01
KDKX 232215Z AUTO 24010G17KT 10SM CLR 25/19 A2989 RMK A01
KDKX 232155Z AUTO 25010G21KT 220V280 10SM CLR 25/19 A2988 RMK A01
KDKX 232135Z AUTO 24011G19KT 10SM CLR 25/20 A2988 RMK A01
KDKX 232115Z AUTO 19007G14KT 170V240 10SM FEW041 SCT065 27/20 A2985 RMK A01
KDKX 232055Z AUTO 21011G19KT 10SM FEW041 SCT065 30/21 A2988 RMK A01
KDKX 232035Z AUTO 25011G17KT 10SM FEW055 FEW070 31/21 A2988 RMK A01
KDKX 232015Z AUTO 23009G17KT 10SM FEW042 31/21 A2988 RMK A01
KDKX 231955Z AUTO 23010G16KT 10SM FEW042 31/20 A2988 RMK A01
KDKX 231935Z AUTO 26010KT 10SM FEW041 FEW050 SCT060 30/21 A2989 RMK A01
KDKX 231915Z AUTO 24007KT 10SM SCT041 SCT049 BKN065 30/20 A2990 RMK A01
KDKX 231855Z AUTO 23009G15KT 200V260 10SM FEW041 SCT049 SCT055 30/20 A2991 RMK A01
KDKX 231835Z AUTO 26008G18KT 240V300 10SM FEW050 FEW075 30/20 A2991 RMK A01
KDKX 231815Z AUTO 26009G15KT 10SM FEW065 29/20 A2992 RMK A01
KDKX 231755Z AUTO 26009G17KT 10SM FEW080 29/20 A2992 RMK A01
KDKX 231735Z AUTO 23008KT 10SM FEW036 FEW080 29/20 A2992 RMK A01
KDKX 231715Z AUTO 25007G14KT 220V290 10SM FEW070 FEW080 28/20 A2992 RMK A01
KDKX 231655Z AUTO 25012KT 10SM FEW032 SCT070 BKN080 27/20 A2993 RMK A01
KDKX 231635Z AUTO 25010G15KT 10SM SCT032 BKN070 27/19 A2993 RMK A01
KDKX 231615Z AUTO 24009KT 10SM SCT032 BKN065 27/20 A2993 RMK A01
KDKX 231555Z AUTO 26008G16KT 10SM FEW028 SCT032 BKN065 27/20 A2993 RMK A01
KDKX 231535Z AUTO 26009G16KT 10SM BKN028 BKN034 BKN040 27/20 A2993 RMK A01
KDKX 231515Z AUTO 21008G15KT 10SM SCT028 BKN036 27/20 A2992 RMK A01
KDKX 231455Z AUTO 22008G17KT 10SM SCT025 BKN030 BKN035 26/20 A2992 RMK A01
KDKX 231435Z AUTO 22008KT 10SM SCT023 25/20 A2991 RMK A01
KDKX 231415Z AUTO 25008G13KT 10SM BKN022 BKN026 25/20 A2991 RMK A01
KDKX 231355Z AUTO 22007G12KT 10SM BKN020 BKN032 BKN038 25/20 A2991 RMK A01
KDKX 231335Z AUTO 26007KT 230V290 10SM BKN017 BKN023 OVC090 24/20 A2992 RMK A01
KDKX 231315Z AUTO 24010KT 10SM SCT018 BKN023 OVC090 23/20 A2992 RMK A01
KDKX 231255Z AUTO 23009G14KT 10SM FEW014 FEW019 BKN090 24/20 A2992 RMK A01
KDKX 231235Z AUTO 22005G11KT 10SM FEW013 SCT023 23/21 A2991 RMK A01
KDKX 231215Z AUTO 24005KT 10SM BKN022 OVC026 23/21 A2991 RMK A01
KDKX 231155Z AUTO 23006KT 10SM BKN022 OVC026 22/21 A2991 RMK A01
KDKX 231135Z AUTO 23005KT 10SM FEW012 OVC021 22/21 A2990 RMK A01
KDKX 231115Z AUTO 26004KT 10SM OVC019 22/20 A2989 RMK A01
KDKX 231055Z AUTO 25005KT 10SM OVC022 22/20 A2988 RMK A01
KDKX 231035Z AUTO 25007KT 10SM OVC025 22/20 A2988 RMK A01
KDKX 231015Z AUTO 25006KT 10SM BKN026 OVC040 22/21 A2987 RMK A01